Time;durP1;ratioP1;P1;durP2;ratioP2;P2;SDS_P1;SDS_P2;PMS_P1;PMS_P2;Temp;Humidity;BMP_temperature;BMP_pressure;BME280_temperature;BME280_humidity;BME280_pressure;Samples;Min_cycle;Max_cycle;Signal;HPM_P1;HPM_P2
2023/02/15 00:01:44;;;;;;;9.32;6.13;;;;;;;;;;5084220;28;20075;-52
2023/02/15 00:04:10;;;;;;;9.85;6.05;;;;;;;;;;5083454;28;20027;-48
2023/02/15 00:06:37;;;;;;;8.27;5.43;;;;;;;;;;5084440;28;20044;-47
2023/02/15 00:09:03;;;;;;;8.98;5.63;;;;;;;;;;5083752;28;20024;-48
2023/02/15 00:11:43;;;;;;;7.97;5.22;;;;;;;;;;5084667;28;20028;-49
2023/02/15 00:14:12;;;;;;;8.60;5.72;;;;;;;;;;5099170;28;20036;-49
2023/02/15 00:16:39;;;;;;;9.32;6.28;;;;;;;;;;5083993;28;20028;-52
2023/02/15 00:19:05;;;;;;;8.82;5.47;;;;;;;;;;5084179;28;20629;-50
2023/02/15 00:21:32;;;;;;;8.80;5.53;;;;;;;;;;5085451;28;20036;-51
2023/02/15 00:23:59;;;;;;;8.73;5.72;;;;;;;;;;5085689;28;20520;-49
2023/02/15 00:26:26;;;;;;;9.18;6.07;;;;;;;;;;5084398;28;20162;-52
2023/02/15 00:28:54;;;;;;;12.30;6.40;;;;;;;;;;5084909;28;20453;-50
2023/02/15 00:31:20;;;;;;;9.88;6.15;;;;;;;;;;5085128;28;20241;-51
2023/02/15 00:33:46;;;;;;;10.45;6.55;;;;;;;;;;5085863;28;20492;-51
2023/02/15 00:36:12;;;;;;;8.70;6.18;;;;;;;;;;5089279;28;20039;-51
2023/02/15 00:38:38;;;;;;;8.13;6.03;;;;;;;;;;5088840;28;20039;-51
2023/02/15 00:41:05;;;;;;;10.07;6.57;;;;;;;;;;5088973;28;20036;-52
2023/02/15 00:43:32;;;;;;;9.98;6.25;;;;;;;;;;5089195;28;20538;-49
2023/02/15 00:45:58;;;;;;;10.27;6.97;;;;;;;;;;5089726;28;20028;-51
2023/02/15 00:48:25;;;;;;;10.75;6.85;;;;;;;;;;5103985;28;20434;-50
2023/02/15 00:50:53;;;;;;;9.90;6.45;;;;;;;;;;5089032;28;20665;-49
2023/02/15 00:53:19;;;;;;;8.65;5.80;;;;;;;;;;5088370;28;20116;-49
2023/02/15 00:55:45;;;;;;;10.25;6.80;;;;;;;;;;5088661;28;20406;-52
2023/02/15 00:58:11;;;;;;;12.93;6.88;;;;;;;;;;5088571;28;20036;-51
2023/02/15 01:00:38;;;;;;;9.80;6.75;;;;;;;;;;5088259;28;20036;-49
2023/02/15 01:03:04;;;;;;;8.35;6.05;;;;;;;;;;5088077;28;20063;-49
2023/02/15 06:12:13;;;;;;;14.48;9.50;;;;;;;;;;5080931;28;20434;-52
2023/02/15 06:14:39;;;;;;;16.33;9.52;;;;;;;;;;5088458;28;20047;-48
2023/02/15 06:17:06;;;;;;;18.50;9.55;;;;;;;;;;5088792;28;20027;-49
2023/02/15 06:19:33;;;;;;;14.43;8.63;;;;;;;;;;5088755;28;20027;-52
2023/02/15 06:21:59;;;;;;;15.30;9.00;;;;;;;;;;5088062;28;20031;-49
2023/02/15 06:24:25;;;;;;;12.73;8.40;;;;;;;;;;5089024;28;20038;-51
2023/02/15 06:26:52;;;;;;;11.88;7.85;;;;;;;;;;5088537;28;20024;-50
2023/02/15 06:29:18;;;;;;;13.02;8.30;;;;;;;;;;5088306;28;20032;-53
2023/02/15 06:31:44;;;;;;;12.88;8.30;;;;;;;;;;5087757;28;20027;-50
2023/02/15 06:34:10;;;;;;;17.73;10.30;;;;;;;;;;5088449;28;20054;-52
2023/02/15 06:36:36;;;;;;;14.82;9.00;;;;;;;;;;5088136;28;20503;-53
2023/02/15 06:39:03;;;;;;;16.85;9.35;;;;;;;;;;5088268;28;20120;-49
2023/02/15 06:41:29;;;;;;;15.70;9.70;;;;;;;;;;5088252;28;20059;-51
2023/02/15 06:43:55;;;;;;;18.60;10.30;;;;;;;;;;5088724;28;20502;-50
2023/02/15 06:46:21;;;;;;;17.58;10.95;;;;;;;;;;5087975;28;20024;-51
2023/02/15 06:48:47;;;;;;;18.33;11.00;;;;;;;;;;5088043;28;20036;-51
2023/02/15 06:51:13;;;;;;;15.90;10.00;;;;;;;;;;5088054;28;20499;-50
2023/02/15 06:53:41;;;;;;;17.20;10.73;;;;;;;;;;5088246;28;20079;-49
2023/02/15 06:56:08;;;;;;;18.38;10.82;;;;;;;;;;5087662;28;20119;-53
2023/02/15 06:58:35;;;;;;;15.25;9.70;;;;;;;;;;5087770;28;20536;-48
2023/02/15 07:01:01;;;;;;;15.52;10.18;;;;;;;;;;5087738;28;20099;-49
2023/02/15 07:03:28;;;;;;;15.70;10.13;;;;;;;;;;5088186;28;20050;-52
2023/02/15 07:05:57;;;;;;;14.40;9.20;;;;;;;;;;5088022;28;20109;-50
2023/02/15 07:08:25;;;;;;;13.75;9.43;;;;;;;;;;5087936;28;20024;-52
2023/02/15 07:10:52;;;;;;;12.32;8.00;;;;;;;;;;5087550;28;20024;-50
2023/02/15 07:13:18;;;;;;;14.63;9.07;;;;;;;;;;5087471;28;20027;-51
2023/02/15 07:15:44;;;;;;;14.38;8.57;;;;;;;;;;5087629;28;20028;-49
2023/02/15 07:18:10;;;;;;;13.48;8.52;;;;;;;;;;5087703;28;20028;-52
2023/02/15 07:20:36;;;;;;;12.73;7.90;;;;;;;;;;5087315;28;20556;-47
2023/02/15 07:23:02;;;;;;;13.35;8.73;;;;;;;;;;5087314;28;20052;-48
2023/02/15 07:25:29;;;;;;;11.32;7.50;;;;;;;;;;5087508;28;20046;-50
2023/02/15 07:27:58;;;;;;;14.70;8.80;;;;;;;;;;5087088;28;20059;-49
2023/02/15 07:30:24;;;;;;;12.80;8.23;;;;;;;;;;5085802;28;20499;-50
2023/02/15 07:33:35;;;;;;;15.93;9.77;;;;;;;;;;5088781;28;20052;-50
2023/02/15 07:35:37;;;;;;;15.98;9.55;;;;;;;;;;5076236;28;20023;-50
2023/02/15 07:38:03;;;;;;;16.70;10.50;;;;;;;;;;5087993;28;20039;-48
2023/02/15 07:40:29;;;;;;;16.83;10.52;;;;;;;;;;5088221;28;20043;-53
2023/02/15 07:42:58;;;;;;;17.73;10.15;;;;;;;;;;5088193;28;20028;-50
2023/02/15 07:45:24;;;;;;;16.00;9.65;;;;;;;;;;5088378;28;20511;-49
2023/02/15 07:47:50;;;;;;;14.85;9.90;;;;;;;;;;5088568;28;20102;-51
2023/02/15 07:50:17;;;;;;;13.85;8.85;;;;;;;;;;5088080;28;20024;-49
2023/02/15 07:52:43;;;;;;;14.88;8.77;;;;;;;;;;5088175;28;20028;-48
2023/02/15 07:55:12;;;;;;;14.57;9.00;;;;;;;;;;5088367;28;20020;-49
2023/02/15 07:57:38;;;;;;;14.23;9.00;;;;;;;;;;5087755;28;20024;-52
2023/02/15 08:00:04;;;;;;;15.45;9.13;;;;;;;;;;5087756;28;20114;-50
2023/02/15 08:02:30;;;;;;;13.13;8.75;;;;;;;;;;5088061;28;20028;-50
2023/02/15 08:04:56;;;;;;;18.55;10.20;;;;;;;;;;5088478;28;20036;-52
2023/02/15 08:07:22;;;;;;;15.50;10.35;;;;;;;;;;5087541;28;21971;-51
2023/02/15 08:09:48;;;;;;;23.40;11.73;;;;;;;;;;5087578;28;20495;-49
2023/02/15 08:12:14;;;;;;;37.28;16.13;;;;;;;;;;5087761;28;20035;-52
2023/02/15 08:14:40;;;;;;;34.83;15.30;;;;;;;;;;5087790;28;20054;-52
2023/02/15 08:17:07;;;;;;;32.17;14.45;;;;;;;;;;5087667;28;20384;-50
2023/02/15 08:19:34;;;;;;;35.72;15.07;;;;;;;;;;5088517;28;20025;-53
2023/02/15 08:22:01;;;;;;;34.92;16.25;;;;;;;;;;5087978;28;20048;-49
2023/02/15 08:24:28;;;;;;;27.95;13.68;;;;;;;;;;5087083;28;20136;-49
2023/02/15 08:26:55;;;;;;;25.02;13.57;;;;;;;;;;5086663;28;20459;-52
2023/02/15 08:29:22;;;;;;;22.08;11.30;;;;;;;;;;5086189;28;20055;-51
2023/02/15 08:31:50;;;;;;;21.90;12.00;;;;;;;;;;5085238;28;20426;-51
2023/02/15 08:34:17;;;;;;;18.40;10.93;;;;;;;;;;5083456;28;20031;-53
2023/02/15 08:36:44;;;;;;;19.92;9.98;;;;;;;;;;5080426;28;20028;-49
2023/02/15 08:39:12;;;;;;;16.35;9.23;;;;;;;;;;5086588;28;20414;-54
2023/02/15 08:41:40;;;;;;;14.60;8.70;;;;;;;;;;5085054;28;20040;-52
2023/02/15 08:44:08;;;;;;;10.95;7.22;;;;;;;;;;5086916;28;20051;-49
2023/02/15 08:46:38;;;;;;;10.98;7.20;;;;;;;;;;5086035;28;20040;-52
2023/02/15 08:49:04;;;;;;;9.43;6.28;;;;;;;;;;5087044;28;20104;-52
2023/02/15 08:51:31;;;;;;;10.95;6.50;;;;;;;;;;5087035;28;20036;-52
2023/02/15 08:53:59;;;;;;;9.55;5.75;;;;;;;;;;5087797;28;20132;-52
2023/02/15 08:56:26;;;;;;;10.57;7.20;;;;;;;;;;5091430;28;20490;-50
2023/02/15 08:58:53;;;;;;;10.25;6.78;;;;;;;;;;5091019;28;20027;-50
2023/02/15 09:01:20;;;;;;;10.15;7.07;;;;;;;;;;5090616;28;20032;-49
2023/02/15 09:03:47;;;;;;;13.80;7.95;;;;;;;;;;5092276;28;20032;-52
2023/02/15 09:06:14;;;;;;;12.38;7.63;;;;;;;;;;5092051;28;20035;-52
2023/02/15 09:08:40;;;;;;;11.48;7.30;;;;;;;;;;5092097;28;20060;-51
2023/02/15 09:11:09;;;;;;;10.90;7.15;;;;;;;;;;5091318;28;20032;-53
2023/02/15 09:13:35;;;;;;;10.65;7.00;;;;;;;;;;5091703;28;20028;-50
2023/02/15 09:16:02;;;;;;;10.23;6.57;;;;;;;;;;5091886;28;20156;-48
2023/02/15 09:18:28;;;;;;;9.95;6.15;;;;;;;;;;5092176;28;20104;-50
2023/02/15 09:20:55;;;;;;;9.15;6.50;;;;;;;;;;5090127;28;20048;-51
2023/02/15 09:23:21;;;;;;;8.50;5.75;;;;;;;;;;5092103;28;20032;-50
2023/02/15 09:25:47;;;;;;;9.85;6.68;;;;;;;;;;5090742;28;20040;-52
2023/02/15 09:28:13;;;;;;;8.13;5.53;;;;;;;;;;5092010;28;20024;-51
2023/02/15 09:30:39;;;;;;;8.23;6.05;;;;;;;;;;5092084;28;20031;-52
2023/02/15 09:33:06;;;;;;;8.27;5.68;;;;;;;;;;5090944;28;20020;-51
2023/02/15 09:35:33;;;;;;;7.50;5.43;;;;;;;;;;5089525;28;20048;-48
2023/02/15 09:37:59;;;;;;;9.10;5.43;;;;;;;;;;5090388;28;20515;-48
2023/02/15 09:40:25;;;;;;;8.18;5.85;;;;;;;;;;5092220;28;20031;-51
2023/02/15 09:42:59;;;;;;;8.23;5.57;;;;;;;;;;5091638;28;20035;-51
2023/02/15 09:45:25;;;;;;;;;;;;;;;;;;5090874;28;20036;-50
2023/02/15 09:48:04;;;;;;;8.20;5.43;;;;;;;;;;5086058;28;19923;-53
2023/02/15 09:50:36;;;;;;;7.55;5.47;;;;;;;;;;5090397;28;20569;-51
2023/02/15 09:53:28;;;;;;;6.53;4.60;;;;;;;;;;5090318;28;20081;-52
2023/02/15 09:55:58;;;;;;;8.30;4.45;;;;;;;;;;5070560;28;20028;-51
2023/02/15 09:58:43;;;;;;;6.47;4.72;;;;;;;;;;5083139;28;20115;-51
2023/02/15 10:01:19;;;;;;;7.40;4.80;;;;;;;;;;5090220;28;20085;-48
2023/02/15 10:04:04;;;;;;;7.78;4.50;;;;;;;;;;5077160;28;20417;-51
2023/02/15 10:06:30;;;;;;;6.88;4.32;;;;;;;;;;5078057;28;20034;-50
2023/02/15 10:09:14;;;;;;;7.45;4.43;;;;;;;;;;5088203;28;20059;-51
2023/02/15 10:11:40;;;;;;;6.22;3.90;;;;;;;;;;5088798;28;20077;-51
2023/02/15 10:14:27;;;;;;;5.07;3.50;;;;;;;;;;5089846;28;20172;-52
2023/02/15 10:16:53;;;;;;;6.72;4.43;;;;;;;;;;5089160;28;20016;-53
2023/02/15 10:19:36;;;;;;;5.97;4.05;;;;;;;;;;5089905;28;20024;-52
2023/02/15 10:22:03;;;;;;;5.25;3.78;;;;;;;;;;5089688;28;20489;-51
2023/02/15 10:24:37;;;;;;;4.07;3.15;;;;;;;;;;5089839;28;20626;-53
2023/02/15 10:27:16;;;;;;;4.97;3.63;;;;;;;;;;5089468;28;20631;-52
2023/02/15 10:29:58;;;;;;;5.82;4.15;;;;;;;;;;5089735;28;20028;-49
2023/02/15 10:32:29;;;;;;;5.13;3.35;;;;;;;;;;5089888;28;20024;-54
2023/02/15 10:35:02;;;;;;;4.78;3.20;;;;;;;;;;5069707;28;20059;-53
2023/02/15 10:37:45;;;;;;;4.82;3.22;;;;;;;;;;5069745;28;20016;-52
2023/02/15 10:40:26;;;;;;;3.92;2.60;;;;;;;;;;5069177;28;20035;-51
2023/02/15 10:42:52;;;;;;;3.17;2.60;;;;;;;;;;5069041;28;20040;-49
2023/02/15 10:45:18;;;;;;;3.33;2.40;;;;;;;;;;5075430;28;20024;-49
2023/02/15 10:47:50;;;;;;;3.05;2.42;;;;;;;;;;5084686;28;20028;-51
2023/02/15 10:50:22;;;;;;;3.88;2.88;;;;;;;;;;5069029;28;20137;-52
2023/02/15 10:53:03;;;;;;;4.70;3.28;;;;;;;;;;5069091;28;20036;-51
2023/02/15 10:55:37;;;;;;;4.63;3.05;;;;;;;;;;5075246;28;20567;-49
2023/02/15 10:58:13;;;;;;;4.85;2.92;;;;;;;;;;5089221;28;20411;-51
2023/02/15 11:00:47;;;;;;;4.55;3.13;;;;;;;;;;5089006;28;20028;-53
2023/02/15 11:03:13;;;;;;;;;;;;;;;;;;5089198;28;20032;-52
2023/02/15 11:05:48;;;;;;;5.07;3.05;;;;;;;;;;5088913;28;19915;-50
2023/02/15 11:08:15;;;;;;;5.00;3.60;;;;;;;;;;5089225;28;20036;-50
2023/02/15 11:10:47;;;;;;;4.50;3.22;;;;;;;;;;5088774;28;20070;-52
2023/02/15 11:13:18;;;;;;;4.90;2.90;;;;;;;;;;5068498;28;20032;-51
2023/02/15 11:15:47;;;;;;;4.93;3.15;;;;;;;;;;5073961;28;20061;-49
2023/02/15 11:18:22;;;;;;;5.43;3.03;;;;;;;;;;5088625;28;20035;-51
2023/02/15 11:20:57;;;;;;;5.50;3.58;;;;;;;;;;5088645;28;20582;-49
2023/02/15 11:23:24;;;;;;;5.72;3.60;;;;;;;;;;5068844;28;20028;-52
2023/02/15 11:26:01;;;;;;;4.38;3.00;;;;;;;;;;5068360;28;20086;-51
2023/02/15 11:28:33;;;;;;;4.32;3.50;;;;;;;;;;5081478;28;20043;-52
2023/02/15 11:31:01;;;;;;;4.18;3.08;;;;;;;;;;5084721;28;20450;-51
2023/02/15 11:33:35;;;;;;;5.28;3.83;;;;;;;;;;5088642;28;20703;-51
2023/02/15 11:36:04;;;;;;;4.97;3.80;;;;;;;;;;5088249;28;20069;-49
2023/02/15 11:38:32;;;;;;;5.30;3.63;;;;;;;;;;5087347;28;20081;-50
2023/02/15 11:41:10;;;;;;;6.85;4.35;;;;;;;;;;5088502;28;20111;-49
2023/02/15 11:43:39;;;;;;;5.55;4.20;;;;;;;;;;5100701;28;20455;-50
2023/02/15 11:46:05;;;;;;;4.32;3.40;;;;;;;;;;5089073;28;20068;-50
2023/02/15 11:48:32;;;;;;;3.92;2.95;;;;;;;;;;5087866;28;20131;-52
2023/02/15 11:50:59;;;;;;;5.18;4.07;;;;;;;;;;5089332;28;20107;-52
2023/02/15 11:53:28;;;;;;;3.95;3.10;;;;;;;;;;5089372;28;20085;-50
2023/02/15 11:55:54;;;;;;;4.78;3.42;;;;;;;;;;5071195;28;20427;-51
2023/02/15 11:58:23;;;;;;;4.20;3.33;;;;;;;;;;5089331;28;20675;-51
2023/02/15 12:00:58;;;;;;;5.97;4.18;;;;;;;;;;5088764;28;20046;-51
2023/02/15 12:03:41;;;;;;;4.38;3.20;;;;;;;;;;5085219;28;20028;-51
2023/02/15 12:06:13;;;;;;;5.45;3.38;;;;;;;;;;5072100;28;20097;-51
2023/02/15 12:08:41;;;;;;;3.63;2.80;;;;;;;;;;5069242;28;20119;-48
2023/02/15 12:11:12;;;;;;;3.70;2.70;;;;;;;;;;5079168;28;20028;-52
2023/02/15 12:13:53;;;;;;;3.92;2.80;;;;;;;;;;5085418;28;20051;-51
2023/02/15 12:16:19;;;;;;;4.68;3.60;;;;;;;;;;5081071;28;20052;-51
2023/02/15 12:18:47;;;;;;;3.28;2.65;;;;;;;;;;5087052;28;20653;-51
2023/02/15 12:21:25;;;;;;;4.47;2.90;;;;;;;;;;5086959;28;20068;-52
2023/02/15 12:23:53;;;;;;;3.00;2.05;;;;;;;;;;5087575;28;20032;-51
2023/02/15 12:26:26;;;;;;;3.90;2.85;;;;;;;;;;5085666;28;20123;-51
2023/02/15 12:28:54;;;;;;;3.33;2.50;;;;;;;;;;5086142;28;20036;-49
2023/02/15 12:31:25;;;;;;;2.50;1.95;;;;;;;;;;5089601;28;20250;-49
2023/02/15 12:33:55;;;;;;;2.60;2.17;;;;;;;;;;5090282;28;20031;-51
2023/02/15 12:36:27;;;;;;;3.13;2.33;;;;;;;;;;5090104;28;20032;-53
2023/02/15 12:39:17;;;;;;;3.13;2.42;;;;;;;;;;5090121;28;20020;-53
2023/02/15 12:42:12;;;;;;;2.50;2.10;;;;;;;;;;5090600;28;20036;-50
2023/02/15 12:44:38;;;;;;;2.60;2.00;;;;;;;;;;5073313;28;20035;-53
2023/02/15 12:47:04;;;;;;;3.08;2.35;;;;;;;;;;5091902;28;20583;-52
2023/02/15 12:49:37;;;;;;;3.35;2.65;;;;;;;;;;5090892;28;20028;-52
2023/02/15 12:52:23;;;;;;;3.38;2.47;;;;;;;;;;5089968;28;20028;-52
2023/02/15 12:54:49;;;;;;;1.98;1.70;;;;;;;;;;5080638;28;20534;-49
2023/02/15 12:57:35;;;;;;;3.10;1.90;;;;;;;;;;5089620;28;20020;-51
2023/02/15 13:00:02;;;;;;;3.25;2.00;;;;;;;;;;5089933;28;20024;-51
2023/02/15 13:02:32;;;;;;;3.50;2.00;;;;;;;;;;5090801;28;20032;-51
2023/02/15 13:05:04;;;;;;;2.42;2.20;;;;;;;;;;5090670;28;20384;-52
2023/02/15 13:07:32;;;;;;;4.07;2.70;;;;;;;;;;5090738;28;20106;-50
2023/02/15 13:09:58;;;;;;;2.80;2.13;;;;;;;;;;5090712;28;20024;-52
2023/02/15 13:12:30;;;;;;;3.58;2.25;;;;;;;;;;5090196;28;20546;-50
2023/02/15 13:14:57;;;;;;;3.05;2.58;;;;;;;;;;5089242;28;20407;-52
2023/02/15 13:17:29;;;;;;;3.05;2.35;;;;;;;;;;5090730;28;20028;-53
2023/02/15 13:19:57;;;;;;;2.78;2.05;;;;;;;;;;5090632;28;20024;-53
2023/02/15 13:22:31;;;;;;;2.92;2.33;;;;;;;;;;5090549;28;20103;-52
2023/02/15 13:24:59;;;;;;;5.07;2.70;;;;;;;;;;5090569;28;20039;-52
2023/02/15 13:27:29;;;;;;;3.72;2.58;;;;;;;;;;5089943;28;20040;-52
2023/02/15 13:29:58;;;;;;;7.15;3.05;;;;;;;;;;5089910;28;20024;-52
2023/02/15 13:32:36;;;;;;;2.53;2.20;;;;;;;;;;5089978;28;20024;-52
2023/02/15 13:35:04;;;;;;;3.22;2.33;;;;;;;;;;5106021;28;20421;-51
2023/02/15 13:37:33;;;;;;;5.45;2.40;;;;;;;;;;5090476;28;20016;-51
2023/02/15 13:39:59;;;;;;;3.05;2.25;;;;;;;;;;5090238;28;20028;-52
2023/02/15 13:42:32;;;;;;;2.92;2.22;;;;;;;;;;5088910;28;20050;-52
2023/02/15 13:44:58;;;;;;;2.55;1.92;;;;;;;;;;5089127;28;20460;-52
2023/02/15 13:47:24;;;;;;;2.33;2.00;;;;;;;;;;5088858;28;20399;-52
2023/02/15 13:49:50;;;;;;;3.17;2.05;;;;;;;;;;5088798;28;20099;-52
2023/02/15 13:52:24;;;;;;;2.08;1.70;;;;;;;;;;5088764;28;20503;-50
2023/02/15 13:54:55;;;;;;;3.58;2.65;;;;;;;;;;5088297;28;20095;-52
2023/02/15 13:57:27;;;;;;;3.58;2.55;;;;;;;;;;5088642;28;20542;-51
2023/02/15 14:00:09;;;;;;;3.17;2.25;;;;;;;;;;5088597;28;20024;-51
2023/02/15 14:02:44;;;;;;;2.65;2.08;;;;;;;;;;5089239;28;20024;-52
2023/02/15 14:05:26;;;;;;;2.00;1.80;;;;;;;;;;5088757;28;20064;-53
2023/02/15 14:08:07;;;;;;;3.25;2.38;;;;;;;;;;5088067;28;20024;-53
2023/02/15 14:10:33;;;;;;;2.38;1.85;;;;;;;;;;5088846;28;20078;-51
2023/02/15 14:13:05;;;;;;;2.20;1.80;;;;;;;;;;5077889;28;20033;-53
2023/02/15 14:15:44;;;;;;;2.15;1.73;;;;;;;;;;5081831;28;20020;-51
2023/02/15 14:18:13;;;;;;;2.78;2.40;;;;;;;;;;5067932;28;20389;-52
2023/02/15 14:20:45;;;;;;;2.53;2.20;;;;;;;;;;5086972;28;20073;-53
2023/02/15 14:23:29;;;;;;;2.28;1.83;;;;;;;;;;5088020;28;20032;-50
2023/02/15 14:26:10;;;;;;;1.75;1.48;;;;;;;;;;5087278;28;20020;-51
2023/02/15 14:28:55;;;;;;;2.42;1.65;;;;;;;;;;5081074;28;20487;-52
2023/02/15 14:31:20;;;;;;;;;;;;;;;;;;5087566;28;20032;-52
2023/02/15 14:33:52;;;;;;;1.98;1.63;;;;;;;;;;5088272;28;19911;-51
2023/02/15 14:36:20;;;;;;;2.35;1.75;;;;;;;;;;5087547;28;20031;-53
2023/02/15 14:38:54;;;;;;;2.53;1.90;;;;;;;;;;5087602;28;20031;-52
2023/02/15 14:41:29;;;;;;;2.22;1.65;;;;;;;;;;5087979;28;20055;-52
2023/02/15 14:43:56;;;;;;;2.35;1.80;;;;;;;;;;5087883;28;20113;-52
2023/02/15 14:46:25;;;;;;;1.80;1.40;;;;;;;;;;5087709;28;20016;-51
2023/02/15 14:48:53;;;;;;;1.50;1.30;;;;;;;;;;5087999;28;20072;-51
2023/02/15 14:51:38;;;;;;;2.00;1.60;;;;;;;;;;5087716;28;20028;-53
2023/02/15 14:54:04;;;;;;;;;;;;;;;;;;5068593;28;20491;-53
2023/02/15 14:56:30;;;;;;;1.92;1.42;;;;;;;;;;5087570;28;19911;-49
2023/02/15 14:58:58;;;;;;;1.70;1.38;;;;;;;;;;5087025;28;20138;-52
2023/02/15 15:01:29;;;;;;;1.50;1.35;;;;;;;;;;5087515;28;20028;-51
2023/02/15 15:03:57;;;;;;;2.42;1.27;;;;;;;;;;5087497;28;20052;-52
2023/02/15 15:06:28;;;;;;;2.88;1.20;;;;;;;;;;5087734;28;20681;-53
2023/02/15 15:08:59;;;;;;;2.10;1.25;;;;;;;;;;5083672;28;20112;-51
2023/02/15 15:11:28;;;;;;;1.63;1.42;;;;;;;;;;5102794;28;20046;-52
2023/02/15 15:14:01;;;;;;;2.15;1.65;;;;;;;;;;5087195;28;20506;-49
2023/02/15 15:16:36;;;;;;;4.00;2.30;;;;;;;;;;5077058;28;20107;-52
2023/02/15 15:19:04;;;;;;;3.55;1.77;;;;;;;;;;5086720;28;20065;-52
2023/02/15 15:21:48;;;;;;;2.13;1.42;;;;;;;;;;5086300;28;20027;-50
2023/02/15 15:24:14;;;;;;;;;;;;;;;;;;5087282;28;20454;-51
2023/02/15 15:26:46;;;;;;;1.88;1.45;;;;;;;;;;5086929;28;19955;-49
2023/02/15 15:29:12;;;;;;;1.70;1.42;;;;;;;;;;5086855;28;20074;-53
2023/02/15 15:31:50;;;;;;;1.60;1.30;;;;;;;;;;5086736;28;20396;-48
2023/02/15 15:34:23;;;;;;;1.60;1.35;;;;;;;;;;5086759;28;20024;-49
2023/02/15 15:37:08;;;;;;;4.32;1.55;;;;;;;;;;5087557;28;20024;-54
2023/02/15 15:39:43;;;;;;;1.67;1.25;;;;;;;;;;5085924;28;20066;-51
2023/02/15 15:42:12;;;;;;;2.17;1.33;;;;;;;;;;5086617;28;20032;-50
2023/02/15 15:44:44;;;;;;;2.13;1.08;;;;;;;;;;5077452;28;20028;-50
2023/02/15 15:47:29;;;;;;;1.20;1.08;;;;;;;;;;5085185;28;20020;-50
2023/02/15 15:49:58;;;;;;;1.13;1.02;;;;;;;;;;5085449;28;20655;-52
2023/02/15 15:52:25;;;;;;;1.08;1.08;;;;;;;;;;5086291;28;20028;-51
2023/02/15 15:54:54;;;;;;;1.35;1.10;;;;;;;;;;5087344;28;20016;-52
2023/02/15 15:57:22;;;;;;;1.67;1.20;;;;;;;;;;5087253;28;20490;-53
2023/02/15 15:59:49;;;;;;;1.27;1.17;;;;;;;;;;5069549;28;20096;-50
2023/02/15 16:02:16;;;;;;;1.30;1.20;;;;;;;;;;5072526;28;20031;-48
2023/02/15 16:04:42;;;;;;;1.80;1.40;;;;;;;;;;5084347;28;20020;-51
2023/02/15 16:07:17;;;;;;;1.13;1.02;;;;;;;;;;5086693;28;20028;-49
2023/02/15 16:09:56;;;;;;;1.63;1.27;;;;;;;;;;5077811;28;20503;-49
2023/02/15 16:12:23;;;;;;;1.80;1.52;;;;;;;;;;5066098;28;20024;-51
2023/02/15 16:14:51;;;;;;;2.30;1.30;;;;;;;;;;5066496;28;20048;-50
2023/02/15 16:17:22;;;;;;;1.33;1.23;;;;;;;;;;5084630;28;20161;-47
2023/02/15 16:19:50;;;;;;;2.17;1.88;;;;;;;;;;5086342;28;20065;-48
2023/02/15 16:22:18;;;;;;;2.15;1.60;;;;;;;;;;5084699;28;20110;-50
2023/02/15 16:25:03;;;;;;;2.28;1.65;;;;;;;;;;5086192;28;20032;-51
2023/02/15 16:27:29;;;;;;;2.50;1.60;;;;;;;;;;5086185;28;20044;-51
2023/02/15 16:29:55;;;;;;;2.25;1.35;;;;;;;;;;5086275;28;20511;-50
2023/02/15 16:32:25;;;;;;;2.15;1.52;;;;;;;;;;5084734;28;20035;-47
2023/02/15 16:35:02;;;;;;;3.38;1.80;;;;;;;;;;5085971;28;20495;-49
2023/02/15 16:37:32;;;;;;;2.90;1.75;;;;;;;;;;5084742;28;20024;-50
2023/02/15 16:39:59;;;;;;;2.45;1.88;;;;;;;;;;5086236;28;20027;-49
2023/02/15 16:42:25;;;;;;;2.50;1.83;;;;;;;;;;5085980;28;20059;-50
2023/02/15 16:44:54;;;;;;;2.50;1.80;;;;;;;;;;5086443;28;20016;-48
2023/02/15 16:47:20;;;;;;;;;;;;;;;;;;5086589;28;19908;-51
2023/02/15 16:49:46;;;;;;;;;;;;;;;;;;5086169;28;20394;-48
2023/02/15 16:52:12;;;;;;;;;;;;;;;;;;5086310;28;19951;-48
2023/02/15 16:54:38;;;;;;;;;;;;;;;;;;5086299;28;20299;-46
2023/02/15 16:57:05;;;;;;;;;;;;;;;;;;5087262;28;20013;-50
2023/02/15 16:59:32;;;;;;;;;;;;;;;;;;5086738;28;19912;-50
2023/02/15 17:01:58;;;;;;;;;;;;;;;;;;5086549;28;19908;-51
2023/02/15 17:04:25;;;;;;;;;;;;;;;;;;5085906;28;19922;-49
2023/02/15 17:06:50;;;;;;;;;;;;;;;;;;5086234;28;19908;-49
2023/02/15 17:09:22;;;;;;;;;;;;;;;;;;5086319;28;20383;-47
2023/02/15 17:11:48;;;;;;;;;;;;;;;;;;5086124;28;19919;-49
2023/02/15 17:14:17;;;;;;;;;;;;;;;;;;5094301;28;20546;-50
2023/02/15 17:16:44;;;;;;;;;;;;;;;;;;5094259;28;19912;-52
2023/02/15 17:19:10;;;;;;;;;;;;;;;;;;5085732;28;19941;-50
2023/02/15 17:21:36;;;;;;;;;;;;;;;;;;5089926;28;19908;-51
2023/02/15 17:24:03;;;;;;;;;;;;;;;;;;5090118;28;20061;-51
2023/02/15 17:26:29;;;;;;;;;;;;;;;;;;5089078;28;19952;-51
2023/02/15 17:28:58;;;;;;;;;;;;;;;;;;5098129;28;19959;-51
2023/02/15 17:31:26;;;;;;;;;;;;;;;;;;5089412;28;19923;-52
2023/02/15 17:33:54;;;;;;;;;;;;;;;;;;5085010;28;19952;-49
2023/02/15 17:36:22;;;;;;;;;;;;;;;;;;5088157;28;19912;-50
2023/02/15 17:38:48;;;;;;;;;;;;;;;;;;5088252;28;19938;-53
2023/02/15 17:41:15;;;;;;;;;;;;;;;;;;5087864;28;19927;-49
2023/02/15 17:43:41;;;;;;;;;;;;;;;;;;5087803;28;20035;-53
2023/02/15 17:46:07;;;;;;;;;;;;;;;;;;5087019;28;19931;-53
2023/02/15 17:48:33;;;;;;;;;;;;;;;;;;5087734;28;19916;-51
2023/02/15 17:50:59;;;;;;;;;;;;;;;;;;5085908;28;19920;-53
2023/02/15 17:53:25;;;;;;;;;;;;;;;;;;5086271;28;19931;-54
2023/02/15 17:55:51;;;;;;;;;;;;;;;;;;5086768;28;19912;-51
2023/02/15 17:58:21;;;;;;;;;;;;;;;;;;5080521;28;20002;-53
2023/02/15 18:11:47;;;;;;;;;;;;;;;;;;5067232;28;19915;-53
2023/02/15 18:14:13;;;;;;;;;;;;;;;;;;5068288;28;20311;-51
2023/02/15 18:16:41;;;;;;;;;;;;;;;;;;5085747;28;19920;-52
2023/02/15 18:19:07;;;;;;;;;;;;;;;;;;5096575;28;19974;-51
2023/02/15 18:21:33;;;;;;;;;;;;;;;;;;5086169;28;20385;-54
2023/02/15 18:23:59;;;;;;;;;;;;;;;;;;5086048;28;19916;-52
2023/02/15 18:26:26;;;;;;;;;;;;;;;;;;5086098;28;19951;-52
2023/02/15 18:28:53;;;;;;;;;;;;;;;;;;5066806;28;20417;-53
2023/02/15 18:31:19;;;;;;;;;;;;;;;;;;5086065;28;20061;-51
2023/02/15 18:33:46;;;;;;;;;;;;;;;;;;5085813;28;20003;-50
2023/02/15 18:36:12;;;;;;;;;;;;;;;;;;5085867;28;19918;-52
2023/02/15 18:38:38;;;;;;;;;;;;;;;;;;5085460;28;19912;-51
2023/02/15 18:41:03;;;;;;;;;;;;;;;;;;5086257;28;19937;-51
2023/02/15 18:43:30;;;;;;;;;;;;;;;;;;5086017;28;20015;-51
2023/02/15 18:45:56;;;;;;;;;;;;;;;;;;5085125;28;19923;-52
2023/02/15 18:48:22;;;;;;;;;;;;;;;;;;5085435;28;19920;-53
2023/02/15 18:50:48;;;;;;;;;;;;;;;;;;5085457;28;19916;-49
2023/02/15 18:53:14;;;;;;;;;;;;;;;;;;5066905;28;19908;-54
2023/02/15 18:55:40;;;;;;;;;;;;;;;;;;5085180;28;19916;-53
2023/02/15 18:58:06;;;;;;;;;;;;;;;;;;5085434;28;19945;-53
2023/02/15 19:00:32;;;;;;;;;;;;;;;;;;5085169;28;19923;-53
2023/02/15 19:02:57;;;;;;;;;;;;;;;;;;5083200;28;19916;-50
2023/02/15 19:05:23;;;;;;;;;;;;;;;;;;5084000;28;19954;-51
2023/02/15 19:07:50;;;;;;;;;;;;;;;;;;5084708;28;19971;-51
2023/02/15 19:10:16;;;;;;;;;;;;;;;;;;5084516;28;19977;-53
2023/02/15 19:12:42;;;;;;;;;;;;;;;;;;5083483;28;20311;-54
2023/02/15 19:15:08;;;;;;;;;;;;;;;;;;5082913;28;19948;-52
2023/02/15 19:17:34;;;;;;;;;;;;;;;;;;5084087;28;19912;-52
2023/02/15 19:20:00;;;;;;;;;;;;;;;;;;5084139;28;19977;-52
2023/02/15 19:22:26;;;;;;;;;;;;;;;;;;5083500;28;20622;-53
2023/02/15 19:24:52;;;;;;;;;;;;;;;;;;5064788;28;19920;-52
2023/02/15 19:27:17;;;;;;;;;;;;;;;;;;5083635;28;19916;-53
2023/02/15 19:29:43;;;;;;;;;;;;;;;;;;5083556;28;20303;-50
2023/02/15 19:32:09;;;;;;;;;;;;;;;;;;5085278;28;20030;-50
2023/02/15 19:34:35;;;;;;;;;;;;;;;;;;5085124;28;19916;-51
2023/02/15 19:37:01;;;;;;;;;;;;;;;;;;5084745;28;19918;-53
2023/02/15 19:39:27;;;;;;;;;;;;;;;;;;5085821;28;20006;-52
2023/02/15 19:41:54;;;;;;;;;;;;;;;;;;5067800;28;19919;-54
2023/02/15 19:44:20;;;;;;;;;;;;;;;;;;5086282;28;20081;-52
2023/02/15 19:46:46;;;;;;;;;;;;;;;;;;5082551;28;20518;-52
2023/02/15 19:49:11;;;;;;;;;;;;;;;;;;5085401;28;19930;-53
2023/02/15 19:51:38;;;;;;;;;;;;;;;;;;5085156;28;19919;-52
2023/02/15 19:54:04;;;;;;;;;;;;;;;;;;5086476;28;20422;-50
2023/02/15 19:56:30;;;;;;;;;;;;;;;;;;5090085;28;20003;-49
2023/02/15 19:58:56;;;;;;;;;;;;;;;;;;5085811;28;19917;-51
2023/02/15 20:01:24;;;;;;;;;;;;;;;;;;5067166;28;19937;-53
2023/02/15 20:03:50;;;;;;;;;;;;;;;;;;5074506;28;20299;-51
2023/02/15 20:06:16;;;;;;;;;;;;;;;;;;5083393;28;19912;-50
2023/02/15 20:08:42;;;;;;;;;;;;;;;;;;5085261;28;19970;-51
2023/02/15 20:11:08;;;;;;;;;;;;;;;;;;5085021;28;19916;-53
2023/02/15 20:13:34;;;;;;;;;;;;;;;;;;5083254;28;19916;-54
2023/02/15 20:16:03;;;;;;;;;;;;;;;;;;5052054;28;19917;-52
2023/02/15 20:18:29;;;;;;;;;;;;;;;;;;5061923;28;19913;-51
2023/02/15 20:20:55;;;;;;;;;;;;;;;;;;5062734;28;19947;-53
2023/02/15 20:23:21;;;;;;;;;;;;;;;;;;5063271;28;19913;-50
2023/02/15 20:25:47;;;;;;;;;;;;;;;;;;5045921;28;19913;-49
2023/02/15 20:28:13;;;;;;;;;;;;;;;;;;5047118;28;19913;-52
2023/02/15 20:30:39;;;;;;;;;;;;;;;;;;5056922;28;19954;-49
2023/02/15 20:33:06;;;;;;;;;;;;;;;;;;5062079;28;19916;-52
2023/02/15 20:35:32;;;;;;;;;;;;;;;;;;5060355;28;19916;-49
2023/02/15 20:37:59;;;;;;;;;;;;;;;;;;5048967;28;20379;-53